Time;durP1;ratioP1;P1;durP2;ratioP2;P2;SDS_P1;SDS_P2;PMS_P1;PMS_P2;Temp;Humidity;BMP_temperature;BMP_pressure;BME280_temperature;BME280_humidity;BME280_pressure;Samples;Min_cycle;Max_cycle;Signal;HPM_P1;HPM_P2
2020/12/15 00:01:29;;;;;;;3.00;2.40;;;;;;;22.40;42.77;95207.56;4943416;28;20039;-74
2020/12/15 00:03:54;;;;;;;4.40;2.78;;;;;;;22.35;43.01;95205.59;4945877;28;20035;-76
2020/12/15 00:06:19;;;;;;;3.65;2.42;;;;;;;22.32;42.84;95209.31;4946808;28;20031;-77
2020/12/15 00:08:45;;;;;;;3.60;2.63;;;;;;;22.33;43.03;95205.34;4946619;28;20075;-76
2020/12/15 00:11:16;;;;;;;3.75;2.67;;;;;;;22.35;43.03;95208.31;4947075;28;20786;-77
2020/12/15 00:13:44;;;;;;;3.78;2.55;;;;;;;22.30;43.08;95200.91;4945838;28;20397;-77
2020/12/15 00:16:09;;;;;;;4.30;2.97;;;;;;;22.28;43.01;95203.38;4929589;29;20035;-77
2020/12/15 00:18:35;;;;;;;3.92;2.80;;;;;;;22.24;43.23;95202.13;4961591;28;20089;-76
2020/12/15 00:21:00;;;;;;;3.45;2.65;;;;;;;22.21;43.12;95209.31;4945409;28;20035;-76
2020/12/15 00:23:25;;;;;;;4.10;2.88;;;;;;;22.18;43.49;95202.13;4946161;28;20043;-77
2020/12/15 00:25:51;;;;;;;3.13;2.47;;;;;;;22.17;43.28;95208.81;4945521;28;20039;-77
2020/12/15 00:28:16;;;;;;;3.95;2.80;;;;;;;22.18;43.29;95202.13;4946956;28;20027;-77
2020/12/15 00:30:42;;;;;;;3.35;2.60;;;;;;;22.18;43.36;95210.28;4961787;28;20047;-76
2020/12/15 00:33:07;;;;;;;4.50;2.55;;;;;;;22.15;43.42;95205.84;4947335;28;20042;-80
2020/12/15 00:35:33;;;;;;;3.72;2.67;;;;;;;22.10;43.36;95203.84;4928283;28;20418;-77
2020/12/15 00:37:58;;;;;;;3.45;2.70;;;;;;;22.08;43.29;95203.63;4945486;28;20844;-77
2020/12/15 00:40:23;;;;;;;3.67;2.83;;;;;;;22.10;43.48;95206.56;4945176;28;20042;-78
2020/12/15 00:42:49;;;;;;;4.10;2.60;;;;;;;22.09;43.24;95202.38;4961724;28;20122;-76
2020/12/15 00:45:14;;;;;;;3.47;2.90;;;;;;;22.09;43.34;95194.22;4946563;28;20097;-78
2020/12/15 00:47:40;;;;;;;3.97;2.80;;;;;;;22.11;43.22;95194.47;4944646;28;20046;-75
2020/12/15 00:50:06;;;;;;;4.38;2.90;;;;;;;22.04;43.40;95200.41;4945277;28;20093;-77
2020/12/15 00:52:31;;;;;;;4.45;2.85;;;;;;;22.06;43.28;95189.78;4962321;28;20035;-76
2020/12/15 00:54:57;;;;;;;3.88;2.80;;;;;;;22.01;43.40;95184.34;4929414;29;20027;-75
2020/12/15 00:57:22;;;;;;;4.28;2.70;;;;;;;21.98;43.56;95194.22;4946548;28;20451;-75
2020/12/15 00:59:48;;;;;;;3.78;2.45;;;;;;;21.96;43.55;95185.81;4946435;28;20038;-75
2020/12/15 01:02:13;;;;;;;4.20;2.65;;;;;;;21.98;43.61;95186.06;4945409;28;20038;-77
2020/12/15 01:04:38;;;;;;;4.47;2.80;;;;;;;21.96;43.53;95188.53;4947001;28;20031;-76
2020/12/15 01:07:04;;;;;;;3.80;2.70;;;;;;;21.95;43.46;95181.59;4945964;28;20050;-75
2020/12/15 01:09:29;;;;;;;3.60;2.72;;;;;;;21.95;43.67;95191.75;4945972;28;20416;-76
2020/12/15 01:11:56;;;;;;;3.65;2.40;;;;;;;21.96;43.51;95183.09;4946023;28;20039;-77
2020/12/15 01:14:21;;;;;;;3.10;2.45;;;;;;;21.90;43.63;95189.03;4960080;28;20049;-76
2020/12/15 01:16:47;;;;;;;4.20;2.90;;;;;;;21.92;43.43;95188.03;4945571;28;20039;-75
2020/12/15 01:19:12;;;;;;;3.75;2.63;;;;;;;21.91;43.61;95187.81;4946654;28;20749;-76
2020/12/15 01:21:38;;;;;;;3.13;2.42;;;;;;;21.89;43.56;95187.56;4930862;29;20046;-75
2020/12/15 01:24:03;;;;;;;3.58;2.75;;;;;;;21.87;43.55;95176.44;4946683;28;20050;-75
2020/12/15 01:26:29;;;;;;;4.07;2.78;;;;;;;21.86;43.62;95188.56;4945144;28;20039;-75
2020/12/15 01:28:54;;;;;;;4.03;2.60;;;;;;;21.83;43.41;95186.81;4944942;28;20079;-77
2020/12/15 01:31:26;;;;;;;4.00;2.70;;;;;;;21.82;43.64;95194.22;4944298;28;20035;-76
2020/12/15 01:33:52;;;;;;;3.58;3.00;;;;;;;21.83;43.66;95189.53;4942741;28;20485;-76
2020/12/15 01:36:25;;;;;;;3.28;2.45;;;;;;;21.86;43.71;95188.56;4944648;28;20023;-76
2020/12/15 01:38:51;;;;;;;3.70;2.63;;;;;;;21.83;43.63;95198.44;4944211;28;20480;-76
2020/12/15 01:41:16;;;;;;;4.18;2.58;;;;;;;21.84;43.51;95196.44;4945509;28;20027;-76
2020/12/15 01:43:59;;;;;;;5.22;3.00;;;;;;;21.78;43.78;95198.41;4944397;28;20047;-75
2020/12/15 01:46:25;;;;;;;3.92;3.08;;;;;;;21.78;43.67;95199.19;4913115;29;20049;-73
2020/12/15 01:48:52;;;;;;;3.95;2.80;;;;;;;21.76;43.60;95195.47;4962877;28;20047;-76
2020/12/15 01:51:17;;;;;;;3.88;2.63;;;;;;;21.77;43.75;95202.38;4946769;28;20035;-75
2020/12/15 01:53:44;;;;;;;4.15;2.72;;;;;;;21.71;43.70;95196.22;4946979;28;20519;-76
2020/12/15 01:56:10;;;;;;;3.28;2.30;;;;;;;21.73;43.71;95201.88;4960898;28;20161;-77
2020/12/15 01:58:35;;;;;;;3.95;2.72;;;;;;;21.68;43.89;95199.91;4944269;28;20524;-77
2020/12/15 02:01:01;;;;;;;4.32;3.10;;;;;;;21.71;43.96;95199.66;4943207;28;20054;-77
2020/12/15 02:03:26;;;;;;;3.63;2.55;;;;;;;21.70;43.34;95197.44;4945702;28;20045;-77
2020/12/15 02:05:52;;;;;;;3.30;2.20;;;;;;;21.70;43.63;95197.44;4945123;28;20034;-77
2020/12/15 02:08:17;;;;;;;3.45;2.40;;;;;;;21.70;43.71;95197.44;4945253;28;21794;-76
2020/12/15 02:10:42;;;;;;;3.53;2.75;;;;;;;21.67;43.80;95209.28;4959602;28;20035;-75
2020/12/15 02:13:08;;;;;;;4.10;3.00;;;;;;;21.67;43.88;95195.69;4927087;28;20042;-78
2020/12/15 02:15:33;;;;;;;4.18;2.72;;;;;;;21.64;43.87;95210.28;4945163;28;20043;-75
2020/12/15 02:17:59;;;;;;;3.53;2.67;;;;;;;21.63;43.76;95192.50;4943456;28;20062;-75
2020/12/15 02:20:24;;;;;;;3.13;2.47;;;;;;;21.63;43.86;95197.94;4943582;28;20046;-76
2020/12/15 02:22:49;;;;;;;2.75;2.33;;;;;;;21.59;43.69;95197.44;4945589;28;20047;-75
2020/12/15 02:25:15;;;;;;;4.00;2.70;;;;;;;21.63;43.84;95197.94;4942284;28;20043;-78
2020/12/15 02:27:40;;;;;;;4.00;2.85;;;;;;;21.60;43.59;95193.50;4943902;28;20039;-76
2020/12/15 02:30:06;;;;;;;3.38;2.60;;;;;;;21.56;44.10;95203.84;4943164;28;20039;-75
2020/12/15 02:32:35;;;;;;;4.20;2.72;;;;;;;21.59;43.80;95203.59;4943420;28;20533;-76
2020/12/15 02:35:00;;;;;;;2.95;2.20;;;;;;;21.55;43.81;95205.06;4960325;28;20483;-78
2020/12/15 02:37:26;;;;;;;3.28;2.58;;;;;;;21.52;43.91;95192.47;4944892;28;20122;-76
2020/12/15 02:39:55;;;;;;;4.10;2.92;;;;;;;21.57;43.95;95208.06;4943305;28;20035;-76
2020/12/15 02:42:21;;;;;;;3.88;2.70;;;;;;;21.56;43.71;95198.41;4944107;28;20027;-77
2020/12/15 02:44:46;;;;;;;3.45;2.53;;;;;;;21.57;43.31;95210.78;4959190;28;20042;-77
2020/12/15 02:47:12;;;;;;;3.70;2.70;;;;;;;21.52;43.87;95203.34;4943212;28;20043;-76
2020/12/15 02:49:37;;;;;;;3.63;2.50;;;;;;;21.52;43.96;95204.09;4959145;28;20027;-76
2020/12/15 02:52:05;;;;;;;3.85;2.58;;;;;;;21.52;44.23;95208.78;4944665;28;20062;-76
2020/12/15 02:54:31;;;;;;;3.47;2.40;;;;;;;21.49;43.59;95209.75;4944464;28;20035;-76
2020/12/15 02:56:56;;;;;;;4.65;2.90;;;;;;;21.48;43.87;95208.31;4944480;28;20046;-76
2020/12/15 02:59:21;;;;;;;4.25;3.00;;;;;;;21.50;43.85;95212.00;4942695;28;20026;-76
2020/12/15 03:01:51;;;;;;;3.83;2.58;;;;;;;21.44;44.16;95207.75;4959024;28;20043;-76
2020/12/15 03:04:17;;;;;;;3.50;2.70;;;;;;;21.47;43.89;95206.81;4942795;28;20526;-77
2020/12/15 03:06:42;;;;;;;3.88;2.67;;;;;;;21.46;44.02;95216.19;4942961;28;20047;-76
2020/12/15 03:09:09;;;;;;;4.10;2.78;;;;;;;21.46;43.93;95216.19;4944061;28;20420;-76
2020/12/15 03:11:35;;;;;;;3.88;2.70;;;;;;;21.45;43.85;95215.44;4927296;28;20409;-76
2020/12/15 03:14:01;;;;;;;3.45;2.75;;;;;;;21.44;44.07;95218.63;4923515;29;20042;-76
2020/12/15 03:16:27;;;;;;;4.10;3.17;;;;;;;21.46;44.11;95221.63;4945256;28;20750;-77
2020/12/15 03:18:53;;;;;;;3.95;2.67;;;;;;;21.46;43.92;95221.63;4944642;28;20038;-76
2020/12/15 03:21:20;;;;;;;4.28;2.80;;;;;;;21.45;43.95;95225.56;4942536;28;20081;-76
2020/12/15 03:23:46;;;;;;;3.47;2.70;;;;;;;21.42;44.02;95226.53;4944073;28;20087;-76
2020/12/15 03:26:11;;;;;;;4.20;2.70;;;;;;;21.46;43.93;95232.47;4944165;28;20028;-75
2020/12/15 03:28:37;;;;;;;3.65;2.58;;;;;;;21.45;44.00;95225.56;4926904;29;20098;-76
2020/12/15 03:31:02;;;;;;;3.40;2.65;;;;;;;21.39;43.92;95232.94;4943850;28;20035;-75
2020/12/15 03:33:27;;;;;;;3.35;2.60;;;;;;;21.40;44.08;95234.41;4942264;28;20412;-77
2020/12/15 03:35:53;;;;;;;3.90;2.75;;;;;;;21.40;44.00;95231.69;4942390;28;20412;-76
2020/12/15 03:38:18;;;;;;;2.83;2.20;;;;;;;21.37;44.37;95229.97;4943091;28;20043;-78
2020/12/15 03:40:44;;;;;;;3.72;2.55;;;;;;;21.39;44.39;95232.94;4942289;28;20038;-75
2020/12/15 03:43:09;;;;;;;4.50;2.92;;;;;;;21.38;44.02;95247.75;4941887;28;20043;-76
2020/12/15 03:45:35;;;;;;;3.80;2.70;;;;;;;21.38;44.13;95258.63;4939319;28;20050;-75
2020/12/15 03:48:00;;;;;;;2.92;2.35;;;;;;;21.34;43.91;95252.66;4957754;28;20412;-76
2020/12/15 03:50:25;;;;;;;3.65;2.67;;;;;;;21.38;44.02;95258.63;4942070;28;20031;-75
2020/12/15 03:52:51;;;;;;;3.38;2.30;;;;;;;21.42;44.35;95259.13;4959239;28;20031;-76
2020/12/15 03:55:21;;;;;;;3.40;2.53;;;;;;;21.45;44.23;95253.47;4943677;28;20028;-76
2020/12/15 03:57:48;;;;;;;4.03;2.50;;;;;;;21.50;44.22;95249.28;4943770;28;20126;-76
2020/12/15 04:00:14;;;;;;;3.72;2.30;;;;;;;21.57;43.92;95254.25;4926470;29;20028;-77
2020/12/15 04:02:39;;;;;;;3.78;2.72;;;;;;;21.60;43.56;95264.16;4942129;28;20050;-77
2020/12/15 04:05:04;;;;;;;3.45;2.42;;;;;;;21.62;43.99;95261.66;4941745;28;20034;-78
2020/12/15 04:07:30;;;;;;;3.58;2.38;;;;;;;21.65;44.11;95268.84;4942755;28;20039;-77
2020/12/15 04:09:55;;;;;;;3.00;2.22;;;;;;;21.68;43.85;95270.56;4958648;28;20036;-76
2020/12/15 04:12:21;;;;;;;3.33;2.30;;;;;;;21.70;43.70;95276.25;4947262;28;20031;-76
2020/12/15 04:14:46;;;;;;;4.18;2.20;;;;;;;21.71;43.93;95275.03;4946259;28;20496;-77
2020/12/15 04:17:11;;;;;;;2.72;2.08;;;;;;;21.72;43.78;95276.50;4942114;28;20512;-76
2020/12/15 04:19:37;;;;;;;3.50;2.50;;;;;;;21.73;43.69;95280.72;4944061;28;20031;-76
2020/12/15 04:22:03;;;;;;;3.45;2.40;;;;;;;21.76;43.82;95279.72;4958160;28;20469;-75
2020/12/15 04:24:29;;;;;;;2.95;2.10;;;;;;;21.76;43.59;95275.03;4926348;29;20171;-75
2020/12/15 04:26:54;;;;;;;3.15;2.17;;;;;;;21.81;43.81;95284.41;4941547;28;20035;-75
2020/12/15 04:29:20;;;;;;;3.28;2.30;;;;;;;21.81;43.34;95284.41;4942877;28;20031;-79
2020/12/15 04:31:45;;;;;;;3.53;2.30;;;;;;;21.82;43.48;95285.91;4943264;28;20116;-75
2020/12/15 04:34:10;;;;;;;3.45;2.42;;;;;;;21.84;43.54;95283.44;4926544;28;20118;-76
2020/12/15 04:36:36;;;;;;;3.33;2.28;;;;;;;21.86;43.69;95291.84;4926494;29;20027;-76
2020/12/15 04:39:01;;;;;;;4.20;2.40;;;;;;;21.78;43.63;95279.97;4940876;28;20051;-77
2020/12/15 04:41:27;;;;;;;3.30;2.30;;;;;;;21.87;43.59;95296.03;4957654;28;20031;-77
2020/12/15 04:43:52;;;;;;;3.00;2.15;;;;;;;21.89;43.82;95296.31;4941892;29;20039;-77
2020/12/15 04:46:20;;;;;;;2.92;1.90;;;;;;;21.89;43.64;95301.75;4941065;28;20035;-78
2020/12/15 04:48:48;;;;;;;3.40;2.30;;;;;;;21.93;43.26;95305.72;4925484;28;20035;-79
2020/12/15 04:51:14;;;;;;;2.63;2.00;;;;;;;21.95;43.26;95306.69;4945574;28;20471;-76
2020/12/15 04:53:39;;;;;;;3.42;2.53;;;;;;;21.96;43.24;95310.91;4945825;28;20047;-75
2020/12/15 04:56:25;;;;;;;3.03;2.30;;;;;;;21.99;43.38;95312.63;4944175;28;20035;-78
2020/12/15 04:58:50;;;;;;;2.72;2.00;;;;;;;22.00;43.06;95308.69;4944380;28;20046;-78
2020/12/15 05:01:16;;;;;;;3.35;2.17;;;;;;;22.03;43.31;95313.16;4945027;28;20411;-77
2020/12/15 05:03:41;;;;;;;2.90;2.05;;;;;;;22.05;43.17;95321.53;4946175;28;20503;-76
2020/12/15 05:06:06;;;;;;;3.88;2.10;;;;;;;22.07;43.36;95310.16;4945550;28;20038;-77
2020/12/15 05:08:32;;;;;;;2.90;2.40;;;;;;;22.08;43.12;95323.28;4909298;29;20044;-77
2020/12/15 05:10:57;;;;;;;3.33;2.38;;;;;;;22.10;43.38;95323.50;4928435;29;20083;-76
2020/12/15 05:13:23;;;;;;;2.17;1.75;;;;;;;22.10;43.09;95323.50;4943900;28;20024;-77
2020/12/15 05:15:48;;;;;;;2.67;2.03;;;;;;;22.12;43.07;95328.47;4945982;28;20030;-77
2020/12/15 05:18:19;;;;;;;3.15;2.10;;;;;;;22.14;43.11;95332.19;4948863;28;20062;-77
2020/12/15 05:20:44;;;;;;;2.75;1.98;;;;;;;22.14;43.07;95329.47;4946824;28;20043;-77
2020/12/15 05:23:10;;;;;;;3.25;2.00;;;;;;;22.15;43.01;95330.97;4944863;28;20106;-77
2020/12/15 05:25:36;;;;;;;3.17;2.10;;;;;;;22.18;43.03;95340.84;4941765;28;20087;-77
2020/12/15 05:28:09;;;;;;;2.50;2.00;;;;;;;22.18;43.11;95335.41;4945669;28;20115;-78
2020/12/15 05:30:35;;;;;;;2.83;2.13;;;;;;;22.19;43.38;95331.44;4958572;28;20166;-78
2020/12/15 05:33:00;;;;;;;2.92;2.10;;;;;;;22.19;43.02;95328.72;4944256;28;20039;-77
2020/12/15 05:35:33;;;;;;;3.45;2.30;;;;;;;22.19;42.94;95331.44;4958566;28;20058;-79
2020/12/15 05:38:03;;;;;;;3.38;2.20;;;;;;;22.22;42.96;95340.63;4944031;28;20134;-83
2020/12/15 05:40:28;;;;;;;;;;;;;;;22.25;42.85;95345.09;4930322;28;20039;-79
2020/12/15 05:42:58;;;;;;;3.85;2.33;;;;;;;22.26;42.91;95338.41;4943689;28;20392;-86
2020/12/15 05:45:24;;;;;;;3.13;1.98;;;;;;;22.25;42.99;95345.81;4944209;28;20047;-79
2020/12/15 05:47:50;;;;;;;2.72;1.80;;;;;;;22.23;42.96;95340.13;4930097;29;20098;-78
2020/12/15 05:50:22;;;;;;;2.53;1.95;;;;;;;22.26;42.83;95352.75;4959692;28;20094;-79
2020/12/15 05:52:57;;;;;;;3.28;2.20;;;;;;;22.23;43.08;95331.25;4928205;29;20110;-83
2020/12/15 05:55:23;;;;;;;3.85;2.25;;;;;;;22.30;42.77;95350.53;4944002;28;20497;-78
2020/12/15 05:57:48;;;;;;;2.78;2.00;;;;;;;22.30;42.78;95342.38;4943910;28;20032;-79
2020/12/15 06:00:14;;;;;;;2.75;1.90;;;;;;;22.30;42.88;95345.09;4943664;28;20034;-77
2020/12/15 06:02:40;;;;;;;2.53;2.00;;;;;;;22.32;42.80;95350.78;4928195;29;20027;-77
2020/12/15 06:05:06;;;;;;;2.60;1.67;;;;;;;22.30;42.70;95336.94;4930592;28;20873;-77
2020/12/15 06:07:34;;;;;;;3.20;2.10;;;;;;;22.34;42.71;95342.84;4942037;28;20042;-78
2020/12/15 06:10:00;;;;;;;3.15;2.00;;;;;;;22.34;42.71;95342.84;4958788;28;20070;-79
2020/12/15 06:12:26;;;;;;;2.50;1.75;;;;;;;22.35;42.73;95344.34;4943264;28;20023;-76
2020/12/15 06:14:51;;;;;;;2.50;1.83;;;;;;;22.35;42.71;95338.91;4945014;28;20067;-78
2020/12/15 06:17:20;;;;;;;3.10;2.10;;;;;;;22.38;42.64;95348.81;4927187;28;20535;-82
2020/12/15 06:20:04;;;;;;;3.10;1.60;;;;;;;22.39;42.65;95344.84;4943056;28;20150;-79
2020/12/15 06:22:30;;;;;;;3.00;2.10;;;;;;;22.39;42.93;95358.47;4942232;28;20027;-78
2020/12/15 06:24:57;;;;;;;2.60;1.80;;;;;;;22.39;42.58;95344.84;4944413;28;20408;-76
2020/12/15 06:27:33;;;;;;;2.65;1.80;;;;;;;22.43;42.62;95361.66;4963556;28;20122;-76
2020/12/15 06:29:59;;;;;;;2.47;1.80;;;;;;;22.39;42.37;95350.28;4964146;28;20125;-82
2020/12/15 06:32:24;;;;;;;2.35;1.65;;;;;;;22.44;42.23;95358.44;4943981;28;20126;-78
2020/12/15 06:34:50;;;;;;;2.35;1.50;;;;;;;22.44;42.59;95357.72;4949942;28;20035;-78
2020/12/15 06:37:17;;;;;;;2.95;1.80;;;;;;;22.46;42.61;95366.13;4946627;28;20030;-79
2020/12/15 06:39:56;;;;;;;2.63;1.92;;;;;;;22.50;42.19;95361.19;4944670;28;20039;-77
2020/12/15 06:42:22;;;;;;;2.55;1.92;;;;;;;22.46;42.41;95355.22;4941994;28;20094;-77
2020/12/15 06:45:00;;;;;;;2.30;1.80;;;;;;;22.56;42.22;95359.19;4939685;28;20039;-77
2020/12/15 06:47:26;;;;;;;2.78;1.90;;;;;;;22.60;42.20;95359.66;4942020;28;20031;-78
2020/12/15 06:49:51;;;;;;;3.75;2.28;;;;;;;22.63;42.38;95362.16;4958013;28;21741;-78
2020/12/15 06:52:25;;;;;;;3.10;1.98;;;;;;;22.65;42.22;95356.97;4942930;28;20023;-75
2020/12/15 06:54:55;;;;;;;3.28;2.00;;;;;;;22.72;42.39;95361.16;4943144;28;20035;-77
2020/12/15 06:57:38;;;;;;;2.72;1.70;;;;;;;22.77;41.85;95363.16;4943453;28;20476;-78
2020/12/15 07:00:08;;;;;;;2.60;1.75;;;;;;;22.81;41.90;95358.16;4925292;29;20058;-78
2020/12/15 07:02:33;;;;;;;2.58;1.73;;;;;;;22.88;41.88;95368.56;4942919;28;20503;-84
2020/12/15 07:05:26;;;;;;;2.95;1.90;;;;;;;22.97;41.74;95372.56;4942151;28;20047;-78
2020/12/15 07:07:53;;;;;;;2.70;2.00;;;;;;;23.03;41.73;95381.47;4956283;28;20023;-77
2020/12/15 07:10:19;;;;;;;2.50;2.00;;;;;;;23.09;41.47;95379.47;4941853;28;20031;-77
2020/12/15 07:12:48;;;;;;;2.83;1.98;;;;;;;23.17;41.63;95375.00;4942730;28;20019;-79
2020/12/15 07:15:14;;;;;;;2.58;1.80;;;;;;;23.21;41.50;95375.47;4941057;28;20039;-78
2020/12/15 07:17:44;;;;;;;2.83;1.77;;;;;;;23.33;41.26;95376.91;4942341;28;20455;-79
2020/12/15 07:20:10;;;;;;;2.88;1.83;;;;;;;23.40;41.01;95370.97;4943645;28;20063;-79
2020/12/15 07:22:36;;;;;;;2.60;1.65;;;;;;;23.40;40.88;95376.41;4941648;28;20921;-75
2020/12/15 07:25:01;;;;;;;2.75;1.60;;;;;;;23.52;40.82;95377.84;4927707;29;20039;-75
2020/12/15 07:27:27;;;;;;;2.92;1.90;;;;;;;23.57;41.09;95388.00;4958720;28;20130;-76
2020/12/15 07:29:54;;;;;;;3.22;1.92;;;;;;;23.61;40.73;95396.66;4941557;28;20069;-76
2020/12/15 07:32:19;;;;;;;2.67;1.80;;;;;;;23.68;40.77;95390.72;4941115;28;20110;-76
2020/12/15 07:34:45;;;;;;;3.17;1.98;;;;;;;23.67;40.66;95383.78;4956382;28;20047;-75
2020/12/15 07:37:10;;;;;;;2.95;2.03;;;;;;;23.79;40.49;95396.13;4941674;28;20114;-76
2020/12/15 07:39:36;;;;;;;2.60;1.60;;;;;;;23.82;40.75;95406.03;4942108;28;20042;-77
2020/12/15 07:42:02;;;;;;;2.25;1.50;;;;;;;23.81;40.48;95408.03;4959300;28;20037;-77
2020/12/15 07:44:28;;;;;;;2.50;1.70;;;;;;;23.86;40.72;95398.34;4926287;29;20023;-76
2020/12/15 07:46:54;;;;;;;2.80;1.80;;;;;;;23.86;40.48;95401.06;4940385;28;20041;-77
2020/12/15 07:49:19;;;;;;;2.55;1.58;;;;;;;23.81;40.23;95404.53;4941018;28;20035;-76
2020/12/15 07:51:45;;;;;;;2.53;1.60;;;;;;;23.86;40.23;95411.97;4943046;28;20043;-77
2020/12/15 07:54:11;;;;;;;2.63;1.90;;;;;;;23.84;40.51;95414.44;4927300;28;20042;-76
2020/12/15 07:56:37;;;;;;;2.50;1.67;;;;;;;23.80;40.19;95424.88;4941640;29;20036;-77
2020/12/15 07:59:04;;;;;;;2.38;1.63;;;;;;;23.80;40.49;95413.97;4943317;28;20035;-77
2020/12/15 08:01:30;;;;;;;2.50;1.80;;;;;;;23.82;40.22;95422.41;4943261;28;20027;-76
2020/12/15 08:04:15;;;;;;;2.80;2.08;;;;;;;23.79;40.34;95420.66;4943031;28;20041;-79
2020/12/15 08:06:46;;;;;;;2.63;1.50;;;;;;;23.77;40.37;95423.16;4950722;28;20031;-76
2020/12/15 08:09:14;;;;;;;3.15;2.00;;;;;;;23.77;40.76;95420.44;4955294;28;20031;-77
2020/12/15 08:11:44;;;;;;;2.42;1.60;;;;;;;23.74;40.39;95424.16;4943097;28;20408;-77
2020/12/15 08:14:11;;;;;;;;;;;;;;;23.72;40.60;95421.19;4942263;28;20066;-76
2020/12/15 08:16:36;;;;;;;2.70;1.80;;;;;;;23.73;40.56;95425.41;4942512;28;19977;-80
2020/12/15 08:19:04;;;;;;;2.95;1.98;;;;;;;23.69;40.54;95419.47;4941954;28;20039;-75
2020/12/15 08:21:50;;;;;;;3.53;2.17;;;;;;;23.64;41.00;95420.22;4925650;28;20047;-79
2020/12/15 08:24:18;;;;;;;2.65;1.75;;;;;;;23.68;40.98;95428.91;4943835;28;20044;-78
2020/12/15 08:26:43;;;;;;;2.80;1.70;;;;;;;23.67;40.71;95432.84;4959535;28;20039;-77
2020/12/15 08:29:11;;;;;;;2.67;1.73;;;;;;;23.68;40.45;95429.63;4929518;29;20034;-77
2020/12/15 08:31:41;;;;;;;3.05;1.90;;;;;;;23.63;40.85;95427.66;4930373;28;20035;-78
2020/12/15 08:34:17;;;;;;;2.58;1.83;;;;;;;23.64;40.58;95436.59;4928915;29;20523;-76
2020/12/15 08:36:50;;;;;;;2.80;1.90;;;;;;;23.62;40.85;95439.06;4926695;28;20030;-77
2020/12/15 08:39:18;;;;;;;2.53;1.80;;;;;;;23.60;41.00;95436.81;4945068;28;20042;-79
2020/12/15 08:41:48;;;;;;;2.72;1.80;;;;;;;23.57;40.98;95440.56;4961443;28;21955;-76
2020/12/15 08:44:17;;;;;;;2.70;1.80;;;;;;;23.57;41.10;95434.34;4948503;28;20031;-75
2020/12/15 08:46:42;;;;;;;2.50;2.13;;;;;;;23.54;40.83;95435.34;4962676;28;20157;-75
2020/12/15 08:49:14;;;;;;;3.13;1.73;;;;;;;23.48;41.10;95435.38;4961785;28;20463;-76
2020/12/15 08:51:50;;;;;;;2.50;1.80;;;;;;;23.53;41.00;95444.78;4945210;28;20122;-76
2020/12/15 08:54:20;;;;;;;3.30;2.08;;;;;;;23.50;40.78;95443.03;4962062;28;20035;-77
2020/12/15 08:56:46;;;;;;;2.63;1.70;;;;;;;23.50;40.59;95440.31;4951802;28;20039;-75
2020/12/15 08:59:15;;;;;;;2.67;1.83;;;;;;;23.50;41.12;95445.78;4954042;28;20035;-78
2020/12/15 09:01:41;;;;;;;3.70;2.03;;;;;;;23.48;41.20;95448.25;4926782;29;20039;-77
2020/12/15 09:04:07;;;;;;;3.90;2.08;;;;;;;23.46;40.99;95439.81;4949058;28;20110;-75
2020/12/15 09:06:37;;;;;;;4.07;2.08;;;;;;;23.43;40.69;95441.56;4945048;28;20036;-75
2020/12/15 09:09:03;;;;;;;3.33;2.17;;;;;;;23.41;41.00;95437.88;4943798;28;20046;-77
2020/12/15 09:11:29;;;;;;;2.80;1.83;;;;;;;23.43;41.22;95441.56;4959053;28;20432;-76
2020/12/15 09:13:59;;;;;;;2.33;1.88;;;;;;;23.42;41.28;95440.09;4927655;28;20039;-76
2020/12/15 09:16:27;;;;;;;2.90;1.95;;;;;;;23.38;40.90;95438.84;4945705;28;20031;-77
2020/12/15 09:18:52;;;;;;;2.95;2.22;;;;;;;23.41;41.19;95441.31;4942675;28;20039;-77
2020/12/15 09:21:18;;;;;;;3.08;2.10;;;;;;;23.39;40.81;95434.88;4943880;28;20122;-76
2020/12/15 09:23:53;;;;;;;4.05;2.20;;;;;;;23.40;40.75;95441.81;4959496;28;20059;-76
2020/12/15 09:26:21;;;;;;;2.83;2.05;;;;;;;23.40;40.89;95444.53;4928535;28;20035;-77
2020/12/15 09:28:47;;;;;;;3.50;2.00;;;;;;;23.42;41.26;95439.31;4958249;28;20552;-76
2020/12/15 09:31:17;;;;;;;2.97;2.10;;;;;;;23.41;41.23;95437.88;4943886;28;20415;-77
2020/12/15 09:33:43;;;;;;;3.05;2.03;;;;;;;23.41;41.21;95432.41;4945567;28;20165;-75
2020/12/15 09:36:34;;;;;;;2.97;1.95;;;;;;;23.40;41.21;95430.91;4942341;28;20500;-76
2020/12/15 09:38:59;;;;;;;3.33;2.15;;;;;;;23.39;41.18;95424.75;4903711;29;20080;-78
2020/12/15 09:41:26;;;;;;;3.13;2.00;;;;;;;23.36;40.94;95419.53;4905096;29;20044;-75
2020/12/15 09:43:52;;;;;;;4.63;2.22;;;;;;;23.42;41.01;95428.44;4889037;29;20111;-77
2020/12/15 09:46:19;;;;;;;3.80;2.10;;;;;;;23.44;40.54;95420.50;4888586;29;20513;-79
2020/12/15 09:48:45;;;;;;;3.03;2.13;;;;;;;23.41;40.89;95421.50;4901922;29;20119;-77
2020/12/15 09:51:13;;;;;;;3.33;2.03;;;;;;;23.40;40.94;95422.75;4887458;29;20184;-77
2020/12/15 09:53:38;;;;;;;2.78;1.70;;;;;;;23.37;40.71;95421.00;4872968;29;20063;-77
2020/12/15 09:58:31;;;;;;;3.25;1.77;;;;;;;23.34;41.30;95405.66;4888397;29;20059;-76
2020/12/15 10:01:00;;;;;;;3.30;1.98;;;;;;;23.38;41.36;95411.59;4889085;29;20032;-78
2020/12/15 10:03:25;;;;;;;3.72;2.53;;;;;;;23.35;41.13;95415.34;4903688;29;20119;-78
2020/12/15 10:05:52;;;;;;;3.35;2.20;;;;;;;23.35;40.94;95407.16;4889315;29;20039;-77
2020/12/15 10:08:17;;;;;;;4.30;2.17;;;;;;;23.35;41.15;95401.69;4887541;29;20033;-77
2020/12/15 10:10:44;;;;;;;3.58;2.38;;;;;;;23.37;40.95;95410.13;4887972;29;21656;-78
2020/12/15 10:13:10;;;;;;;3.15;2.00;;;;;;;23.36;40.91;95395.00;4889041;29;20039;-77
2020/12/15 10:15:36;;;;;;;3.13;2.20;;;;;;;23.37;40.65;95404.66;4900397;29;20129;-77
2020/12/15 10:18:04;;;;;;;3.50;2.20;;;;;;;23.34;41.31;95405.66;4943925;28;20070;-77
2020/12/15 10:20:29;;;;;;;3.38;2.13;;;;;;;23.34;40.98;95405.66;4944628;28;20110;-77
2020/12/15 10:22:59;;;;;;;3.10;2.05;;;;;;;23.30;41.24;95405.16;4942058;28;20056;-80
2020/12/15 10:25:24;;;;;;;4.82;2.25;;;;;;;23.27;41.20;95408.88;4943896;28;20035;-76
2020/12/15 10:27:49;;;;;;;3.03;2.03;;;;;;;23.23;41.25;95405.69;4959478;28;20046;-76
2020/12/15 10:30:15;;;;;;;3.42;2.40;;;;;;;23.26;41.16;95410.16;4942499;28;20035;-77
2020/12/15 10:32:45;;;;;;;3.10;2.13;;;;;;;23.31;41.08;95412.09;4943843;28;20484;-76
2020/12/15 10:35:10;;;;;;;3.80;2.42;;;;;;;23.32;41.31;95397.25;4943617;28;20441;-76
2020/12/15 10:37:37;;;;;;;5.28;2.45;;;;;;;23.28;41.44;95402.22;4943180;28;20511;-77
2020/12/15 10:40:03;;;;;;;3.83;2.42;;;;;;;23.26;41.74;95401.97;4947368;28;20475;-78
2020/12/15 10:42:31;;;;;;;8.75;2.22;;;;;;;23.23;41.89;95405.69;4943567;28;20089;-76
2020/12/15 10:44:57;;;;;;;4.18;2.22;;;;;;;23.22;41.77;95390.56;4943433;28;20578;-77
2020/12/15 10:47:24;;;;;;;4.53;2.67;;;;;;;23.28;41.46;95396.75;4941586;28;20023;-77
2020/12/15 10:49:49;;;;;;;4.93;2.60;;;;;;;23.29;41.48;95395.53;4959022;28;21442;-76
2020/12/15 10:52:18;;;;;;;5.15;2.55;;;;;;;23.30;41.36;95388.81;4937651;28;20035;-76
2020/12/15 10:54:43;;;;;;;3.45;2.17;;;;;;;23.31;41.71;95379.41;4942695;29;20035;-76
2020/12/15 10:57:09;;;;;;;5.30;2.75;;;;;;;23.32;41.71;95380.91;4957583;28;20063;-77
2020/12/15 10:59:35;;;;;;;4.43;2.33;;;;;;;23.32;41.37;95380.91;4944107;28;20039;-78
2020/12/15 11:02:26;;;;;;;4.97;2.38;;;;;;;23.35;41.12;95379.91;4960116;28;20066;-77
2020/12/15 11:04:52;;;;;;;3.90;2.35;;;;;;;23.37;41.28;95383.59;4943917;28;20035;-77
2020/12/15 11:07:20;;;;;;;3.72;2.28;;;;;;;23.36;41.31;95367.75;4915640;29;20027;-77
2020/12/15 11:09:45;;;;;;;4.97;2.53;;;;;;;23.36;41.46;95367.75;4943696;28;20046;-77
2020/12/15 11:12:11;;;;;;;6.20;2.58;;;;;;;23.38;41.36;95368.00;4943749;28;20039;-77
2020/12/15 11:14:37;;;;;;;4.72;2.72;;;;;;;23.45;41.47;95367.47;4942086;28;20038;-76
2020/12/15 11:17:03;;;;;;;5.05;2.92;;;;;;;23.46;41.07;95363.50;4941063;28;20028;-77
2020/12/15 11:19:29;;;;;;;4.28;2.45;;;;;;;23.47;41.18;95360.28;4943299;28;20034;-76
2020/12/15 11:21:54;;;;;;;5.63;2.80;;;;;;;23.47;41.23;95362.28;4931115;28;20050;-76
2020/12/15 11:24:20;;;;;;;3.10;2.13;;;;;;;23.48;40.95;95356.31;4949321;28;20429;-75
2020/12/15 11:26:49;;;;;;;5.72;2.63;;;;;;;23.36;41.22;95337.75;4960363;28;20642;-76
2020/12/15 11:29:15;;;;;;;13.43;3.20;;;;;;;23.45;41.16;95356.56;4944744;29;20074;-76
2020/12/15 11:31:40;;;;;;;9.13;2.72;;;;;;;23.39;41.49;95359.31;4959338;28;20027;-77
2020/12/15 11:34:06;;;;;;;5.88;2.80;;;;;;;23.41;41.52;95356.09;4942561;28;20082;-77
2020/12/15 11:36:31;;;;;;;6.38;3.10;;;;;;;23.39;41.22;95347.66;4941456;28;20509;-77